sensor_id;sensor_type;location;lat;lon;timestamp;temperature;humidity
25248;DHT22;13191;47.472;11.214;2024-01-30T00:01:57;1.60;99.90
25248;DHT22;13191;47.472;11.214;2024-01-30T00:04:22;1.40;99.90
25248;DHT22;13191;47.472;11.214;2024-01-30T00:06:48;1.40;99.90
25248;DHT22;13191;47.472;11.214;2024-01-30T00:09:14;1.40;99.90
25248;DHT22;13191;47.472;11.214;2024-01-30T00:11:39;1.50;99.90
25248;DHT22;13191;47.472;11.214;2024-01-30T00:14:05;1.50;99.90
25248;DHT22;13191;47.472;11.214;2024-01-30T00:16:31;1.50;99.90
25248;DHT22;13191;47.472;11.214;2024-01-30T00:18:57;1.40;99.90
25248;DHT22;13191;47.472;11.214;2024-01-30T00:21:22;1.20;99.90
25248;DHT22;13191;47.472;11.214;2024-01-30T00:23:48;1.10;99.90
25248;DHT22;13191;47.472;11.214;2024-01-30T00:26:14;1.30;99.90
25248;DHT22;13191;47.472;11.214;2024-01-30T00:28:43;1.30;99.90
25248;DHT22;13191;47.472;11.214;2024-01-30T00:31:08;1.40;99.90
25248;DHT22;13191;47.472;11.214;2024-01-30T00:33:38;1.40;99.90
25248;DHT22;13191;47.472;11.214;2024-01-30T00:36:03;1.40;99.90
25248;DHT22;13191;47.472;11.214;2024-01-30T00:38:30;1.40;99.90
25248;DHT22;13191;47.472;11.214;2024-01-30T00:40:55;1.50;99.90
25248;DHT22;13191;47.472;11.214;2024-01-30T00:43:21;1.30;99.90
25248;DHT22;13191;47.472;11.214;2024-01-30T00:45:46;1.30;99.90
25248;DHT22;13191;47.472;11.214;2024-01-30T00:48:12;1.40;99.90
25248;DHT22;13191;47.472;11.214;2024-01-30T00:50:37;1.40;99.90
25248;DHT22;13191;47.472;11.214;2024-01-30T00:53:03;1.40;99.90
25248;DHT22;13191;47.472;11.214;2024-01-30T00:55:28;1.20;99.90
25248;DHT22;13191;47.472;11.214;2024-01-30T00:57:54;1.30;99.90
25248;DHT22;13191;47.472;11.214;2024-01-30T01:00:19;1.30;99.90
25248;DHT22;13191;47.472;11.214;2024-01-30T01:02:46;1.30;99.90
25248;DHT22;13191;47.472;11.214;2024-01-30T01:05:12;1.40;99.90
25248;DHT22;13191;47.472;11.214;2024-01-30T01:07:37;1.40;99.90
25248;DHT22;13191;47.472;11.214;2024-01-30T01:10:03;1.30;99.90
25248;DHT22;13191;47.472;11.214;2024-01-30T01:12:29;1.30;99.90
25248;DHT22;13191;47.472;11.214;2024-01-30T01:14:54;1.10;99.90
25248;DHT22;13191;47.472;11.214;2024-01-30T01:17:20;1.20;99.90
25248;DHT22;13191;47.472;11.214;2024-01-30T01:19:45;1.30;99.90
25248;DHT22;13191;47.472;11.214;2024-01-30T01:22:11;1.30;99.90
25248;DHT22;13191;47.472;11.214;2024-01-30T01:24:36;1.30;99.90
25248;DHT22;13191;47.472;11.214;2024-01-30T01:27:02;1.20;99.90
25248;DHT22;13191;47.472;11.214;2024-01-30T01:29:28;1.20;99.90
25248;DHT22;13191;47.472;11.214;2024-01-30T01:31:58;1.20;99.90
25248;DHT22;13191;47.472;11.214;2024-01-30T01:34:23;1.30;99.90
25248;DHT22;13191;47.472;11.214;2024-01-30T01:36:49;1.30;99.90
25248;DHT22;13191;47.472;11.214;2024-01-30T01:39:15;1.30;99.90
25248;DHT22;13191;47.472;11.214;2024-01-30T01:41:41;1.30;99.90
25248;DHT22;13191;47.472;11.214;2024-01-30T01:44:07;1.30;99.90
25248;DHT22;13191;47.472;11.214;2024-01-30T01:46:33;1.20;99.90
25248;DHT22;13191;47.472;11.214;2024-01-30T01:49:00;1.10;99.90
25248;DHT22;13191;47.472;11.214;2024-01-30T01:51:27;1.20;99.90
25248;DHT22;13191;47.472;11.214;2024-01-30T01:53:55;1.10;99.90
25248;DHT22;13191;47.472;11.214;2024-01-30T01:56:23;1.10;99.90
25248;DHT22;13191;47.472;11.214;2024-01-30T01:58:49;1.20;99.90
25248;DHT22;13191;47.472;11.214;2024-01-30T02:01:18;1.20;99.90
25248;DHT22;13191;47.472;11.214;2024-01-30T02:03:45;1.20;99.90
25248;DHT22;13191;47.472;11.214;2024-01-30T02:06:12;1.10;99.90
25248;DHT22;13191;47.472;11.214;2024-01-30T02:08:39;1.00;99.90
25248;DHT22;13191;47.472;11.214;2024-01-30T02:11:05;1.10;99.90
25248;DHT22;13191;47.472;11.214;2024-01-30T02:13:30;1.00;99.90
25248;DHT22;13191;47.472;11.214;2024-01-30T02:15:56;0.90;99.90
25248;DHT22;13191;47.472;11.214;2024-01-30T02:18:22;0.90;99.90
25248;DHT22;13191;47.472;11.214;2024-01-30T02:20:48;1.00;99.90
25248;DHT22;13191;47.472;11.214;2024-01-30T02:23:15;1.00;99.90
25248;DHT22;13191;47.472;11.214;2024-01-30T02:25:42;1.00;99.90
25248;DHT22;13191;47.472;11.214;2024-01-30T02:28:13;1.10;99.90
25248;DHT22;13191;47.472;11.214;2024-01-30T02:30:39;0.90;99.90
25248;DHT22;13191;47.472;11.214;2024-01-30T02:33:05;1.00;99.90
25248;DHT22;13191;47.472;11.214;2024-01-30T02:35:31;0.90;99.90
25248;DHT22;13191;47.472;11.214;2024-01-30T02:37:56;0.90;99.90
25248;DHT22;13191;47.472;11.214;2024-01-30T02:40:22;0.80;99.90
25248;DHT22;13191;47.472;11.214;2024-01-30T02:42:47;0.90;99.90
25248;DHT22;13191;47.472;11.214;2024-01-30T02:45:13;0.80;99.90
25248;DHT22;13191;47.472;11.214;2024-01-30T02:47:39;0.80;99.90
25248;DHT22;13191;47.472;11.214;2024-01-30T02:50:05;0.90;99.90
25248;DHT22;13191;47.472;11.214;2024-01-30T02:52:51;1.00;99.90
25248;DHT22;13191;47.472;11.214;2024-01-30T02:55:17;1.00;99.90
25248;DHT22;13191;47.472;11.214;2024-01-30T02:57:43;1.00;99.90
25248;DHT22;13191;47.472;11.214;2024-01-30T03:00:09;0.70;99.90
25248;DHT22;13191;47.472;11.214;2024-01-30T03:02:36;0.80;99.90
25248;DHT22;13191;47.472;11.214;2024-01-30T03:05:02;0.90;99.90
25248;DHT22;13191;47.472;11.214;2024-01-30T03:07:29;0.80;99.90
25248;DHT22;13191;47.472;11.214;2024-01-30T03:09:54;0.80;99.90
25248;DHT22;13191;47.472;11.214;2024-01-30T03:12:23;0.80;99.90
25248;DHT22;13191;47.472;11.214;2024-01-30T03:14:48;0.90;99.90
25248;DHT22;13191;47.472;11.214;2024-01-30T03:17:14;0.90;99.90
25248;DHT22;13191;47.472;11.214;2024-01-30T03:19:40;0.90;99.90
25248;DHT22;13191;47.472;11.214;2024-01-30T03:22:06;1.00;99.90
25248;DHT22;13191;47.472;11.214;2024-01-30T03:24:31;0.70;99.90
25248;DHT22;13191;47.472;11.214;2024-01-30T03:26:57;0.80;99.90
25248;DHT22;13191;47.472;11.214;2024-01-30T03:29:22;0.90;99.90
25248;DHT22;13191;47.472;11.214;2024-01-30T03:31:48;0.90;99.90
25248;DHT22;13191;47.472;11.214;2024-01-30T03:34:13;1.00;99.90
25248;DHT22;13191;47.472;11.214;2024-01-30T03:36:39;0.90;99.90
25248;DHT22;13191;47.472;11.214;2024-01-30T03:39:04;0.90;99.90
25248;DHT22;13191;47.472;11.214;2024-01-30T03:41:30;0.90;99.90
25248;DHT22;13191;47.472;11.214;2024-01-30T03:43:55;0.90;99.90
25248;DHT22;13191;47.472;11.214;2024-01-30T03:46:21;0.80;99.90
25248;DHT22;13191;47.472;11.214;2024-01-30T03:48:46;0.90;99.90
25248;DHT22;13191;47.472;11.214;2024-01-30T03:51:12;0.80;99.90
25248;DHT22;13191;47.472;11.214;2024-01-30T03:53:42;0.80;99.90
25248;DHT22;13191;47.472;11.214;2024-01-30T03:56:08;0.80;99.90
25248;DHT22;13191;47.472;11.214;2024-01-30T03:58:33;0.80;99.90
25248;DHT22;13191;47.472;11.214;2024-01-30T04:00:59;0.90;99.90
25248;DHT22;13191;47.472;11.214;2024-01-30T04:03:24;0.90;99.90
25248;DHT22;13191;47.472;11.214;2024-01-30T04:05:52;0.90;99.90
25248;DHT22;13191;47.472;11.214;2024-01-30T04:08:17;0.90;99.90
25248;DHT22;13191;47.472;11.214;2024-01-30T04:10:43;1.00;99.90
25248;DHT22;13191;47.472;11.214;2024-01-30T04:13:09;1.00;99.90
25248;DHT22;13191;47.472;11.214;2024-01-30T04:15:34;0.90;99.90
25248;DHT22;13191;47.472;11.214;2024-01-30T04:18:00;1.00;99.90
25248;DHT22;13191;47.472;11.214;2024-01-30T04:20:26;0.80;99.90
25248;DHT22;13191;47.472;11.214;2024-01-30T04:22:51;0.90;99.90
25248;DHT22;13191;47.472;11.214;2024-01-30T04:25:17;0.80;99.90
25248;DHT22;13191;47.472;11.214;2024-01-30T04:27:43;0.80;99.90
25248;DHT22;13191;47.472;11.214;2024-01-30T04:30:08;0.80;99.90
25248;DHT22;13191;47.472;11.214;2024-01-30T04:32:35;0.90;99.90
25248;DHT22;13191;47.472;11.214;2024-01-30T04:35:00;0.80;99.90
25248;DHT22;13191;47.472;11.214;2024-01-30T04:37:26;0.80;99.90
25248;DHT22;13191;47.472;11.214;2024-01-30T04:39:51;0.90;99.90
25248;DHT22;13191;47.472;11.214;2024-01-30T04:42:17;0.90;99.90
25248;DHT22;13191;47.472;11.214;2024-01-30T04:44:43;0.90;99.90
25248;DHT22;13191;47.472;11.214;2024-01-30T04:47:08;0.90;99.90
25248;DHT22;13191;47.472;11.214;2024-01-30T04:49:36;0.90;99.90
25248;DHT22;13191;47.472;11.214;2024-01-30T04:52:02;0.90;99.90
25248;DHT22;13191;47.472;11.214;2024-01-30T04:54:27;1.00;99.90
25248;DHT22;13191;47.472;11.214;2024-01-30T04:56:53;1.00;99.90
25248;DHT22;13191;47.472;11.214;2024-01-30T04:59:18;0.90;99.90
25248;DHT22;13191;47.472;11.214;2024-01-30T05:01:44;0.90;99.90
25248;DHT22;13191;47.472;11.214;2024-01-30T05:04:10;0.90;99.90
25248;DHT22;13191;47.472;11.214;2024-01-30T05:06:36;0.80;99.90
25248;DHT22;13191;47.472;11.214;2024-01-30T05:09:02;0.80;99.90
25248;DHT22;13191;47.472;11.214;2024-01-30T05:11:29;0.70;99.90
25248;DHT22;13191;47.472;11.214;2024-01-30T05:13:55;0.80;99.90
25248;DHT22;13191;47.472;11.214;2024-01-30T05:16:20;0.90;99.90
25248;DHT22;13191;47.472;11.214;2024-01-30T05:18:46;0.90;99.90
25248;DHT22;13191;47.472;11.214;2024-01-30T05:21:11;0.90;99.90
25248;DHT22;13191;47.472;11.214;2024-01-30T05:23:37;1.00;99.90
25248;DHT22;13191;47.472;11.214;2024-01-30T05:26:02;1.10;99.90
25248;DHT22;13191;47.472;11.214;2024-01-30T05:28:31;1.10;99.90
25248;DHT22;13191;47.472;11.214;2024-01-30T05:30:57;1.10;99.90
25248;DHT22;13191;47.472;11.214;2024-01-30T05:33:22;1.00;99.90
25248;DHT22;13191;47.472;11.214;2024-01-30T05:35:48;1.10;99.90
25248;DHT22;13191;47.472;11.214;2024-01-30T05:38:15;1.20;99.90
25248;DHT22;13191;47.472;11.214;2024-01-30T05:40:41;1.30;99.90
25248;DHT22;13191;47.472;11.214;2024-01-30T05:43:06;1.30;99.90
25248;DHT22;13191;47.472;11.214;2024-01-30T05:45:33;1.30;99.90
25248;DHT22;13191;47.472;11.214;2024-01-30T05:47:59;1.40;99.90
25248;DHT22;13191;47.472;11.214;2024-01-30T05:50:25;1.40;99.90
25248;DHT22;13191;47.472;11.214;2024-01-30T05:52:51;1.30;99.90
25248;DHT22;13191;47.472;11.214;2024-01-30T05:55:17;1.40;99.90
25248;DHT22;13191;47.472;11.214;2024-01-30T05:57:42;1.30;99.90
25248;DHT22;13191;47.472;11.214;2024-01-30T06:00:08;1.30;99.90
25248;DHT22;13191;47.472;11.214;2024-01-30T06:02:34;1.40;99.90
25248;DHT22;13191;47.472;11.214;2024-01-30T06:04:59;1.50;99.90
25248;DHT22;13191;47.472;11.214;2024-01-30T06:07:25;1.60;99.90
25248;DHT22;13191;47.472;11.214;2024-01-30T06:09:50;1.50;99.90
25248;DHT22;13191;47.472;11.214;2024-01-30T06:12:16;1.60;99.90
25248;DHT22;13191;47.472;11.214;2024-01-30T06:14:41;1.40;99.90
25248;DHT22;13191;47.472;11.214;2024-01-30T06:17:08;1.50;99.90
25248;DHT22;13191;47.472;11.214;2024-01-30T06:19:34;1.50;99.90
25248;DHT22;13191;47.472;11.214;2024-01-30T06:21:59;1.50;99.90
25248;DHT22;13191;47.472;11.214;2024-01-30T06:24:25;1.60;99.90
25248;DHT22;13191;47.472;11.214;2024-01-30T06:26:51;1.60;99.90
25248;DHT22;13191;47.472;11.214;2024-01-30T06:29:16;1.60;99.90
25248;DHT22;13191;47.472;11.214;2024-01-30T06:31:42;1.70;99.90
25248;DHT22;13191;47.472;11.214;2024-01-30T06:34:11;1.70;99.90
25248;DHT22;13191;47.472;11.214;2024-01-30T06:36:37;1.80;99.90
25248;DHT22;13191;47.472;11.214;2024-01-30T06:39:03;1.70;99.90
25248;DHT22;13191;47.472;11.214;2024-01-30T06:41:29;1.50;99.90
25248;DHT22;13191;47.472;11.214;2024-01-30T06:43:55;1.60;99.90
25248;DHT22;13191;47.472;11.214;2024-01-30T06:46:21;1.70;99.90
25248;DHT22;13191;47.472;11.214;2024-01-30T06:48:46;1.70;99.90
25248;DHT22;13191;47.472;11.214;2024-01-30T06:51:12;1.80;99.90
25248;DHT22;13191;47.472;11.214;2024-01-30T06:53:38;1.70;99.90
25248;DHT22;13191;47.472;11.214;2024-01-30T06:56:04;1.80;99.90
25248;DHT22;13191;47.472;11.214;2024-01-30T06:58:29;1.80;99.90
25248;DHT22;13191;47.472;11.214;2024-01-30T07:00:56;1.80;99.90
25248;DHT22;13191;47.472;11.214;2024-01-30T07:03:21;1.80;99.90
25248;DHT22;13191;47.472;11.214;2024-01-30T07:05:47;1.80;99.90
25248;DHT22;13191;47.472;11.214;2024-01-30T07:08:12;1.80;99.90
25248;DHT22;13191;47.472;11.214;2024-01-30T07:10:38;1.80;99.90
25248;DHT22;13191;47.472;11.214;2024-01-30T07:13:04;1.90;99.90
25248;DHT22;13191;47.472;11.214;2024-01-30T07:15:31;1.90;99.90
25248;DHT22;13191;47.472;11.214;2024-01-30T07:17:56;1.90;99.90
25248;DHT22;13191;47.472;11.214;2024-01-30T07:20:22;1.90;99.90
25248;DHT22;13191;47.472;11.214;2024-01-30T07:22:47;1.90;99.90
25248;DHT22;13191;47.472;11.214;2024-01-30T07:25:13;2.00;99.90
25248;DHT22;13191;47.472;11.214;2024-01-30T07:27:39;1.90;99.90
25248;DHT22;13191;47.472;11.214;2024-01-30T07:30:05;1.90;99.90
25248;DHT22;13191;47.472;11.214;2024-01-30T07:32:31;1.90;99.90
25248;DHT22;13191;47.472;11.214;2024-01-30T07:34:57;1.90;99.90
25248;DHT22;13191;47.472;11.214;2024-01-30T07:37:22;1.90;99.90
25248;DHT22;13191;47.472;11.214;2024-01-30T07:39:48;1.90;99.90
25248;DHT22;13191;47.472;11.214;2024-01-30T07:42:13;1.90;99.90
25248;DHT22;13191;47.472;11.214;2024-01-30T07:44:39;1.90;99.90
25248;DHT22;13191;47.472;11.214;2024-01-30T07:47:05;1.90;99.90
25248;DHT22;13191;47.472;11.214;2024-01-30T07:49:30;2.00;99.90
25248;DHT22;13191;47.472;11.214;2024-01-30T07:51:56;2.00;99.90
25248;DHT22;13191;47.472;11.214;2024-01-30T07:54:21;2.00;99.90
25248;DHT22;13191;47.472;11.214;2024-01-30T07:56:47;2.00;99.90
25248;DHT22;13191;47.472;11.214;2024-01-30T07:59:12;2.10;99.90
25248;DHT22;13191;47.472;11.214;2024-01-30T08:01:38;2.10;99.90
25248;DHT22;13191;47.472;11.214;2024-01-30T08:04:04;2.10;99.90
25248;DHT22;13191;47.472;11.214;2024-01-30T08:06:29;2.10;99.90
25248;DHT22;13191;47.472;11.214;2024-01-30T08:08:55;2.10;99.90
25248;DHT22;13191;47.472;11.214;2024-01-30T08:11:22;2.10;99.90
25248;DHT22;13191;47.472;11.214;2024-01-30T08:13:52;2.10;99.90
25248;DHT22;13191;47.472;11.214;2024-01-30T08:16:17;2.20;99.90
25248;DHT22;13191;47.472;11.214;2024-01-30T08:18:43;2.20;99.90
25248;DHT22;13191;47.472;11.214;2024-01-30T08:21:09;2.30;99.90
25248;DHT22;13191;47.472;11.214;2024-01-30T08:23:34;2.30;99.90
25248;DHT22;13191;47.472;11.214;2024-01-30T08:26:00;2.30;99.90
25248;DHT22;13191;47.472;11.214;2024-01-30T08:28:25;2.30;99.90
25248;DHT22;13191;47.472;11.214;2024-01-30T08:30:51;2.40;99.90
25248;DHT22;13191;47.472;11.214;2024-01-30T08:33:17;2.40;99.90
25248;DHT22;13191;47.472;11.214;2024-01-30T08:35:42;2.50;99.90
25248;DHT22;13191;47.472;11.214;2024-01-30T08:38:08;2.50;99.90
25248;DHT22;13191;47.472;11.214;2024-01-30T08:40:33;2.60;99.90
25248;DHT22;13191;47.472;11.214;2024-01-30T08:43:00;2.70;99.90
25248;DHT22;13191;47.472;11.214;2024-01-30T08:45:25;2.70;99.90
25248;DHT22;13191;47.472;11.214;2024-01-30T08:47:51;2.70;99.90
25248;DHT22;13191;47.472;11.214;2024-01-30T08:50:17;2.80;99.90
25248;DHT22;13191;47.472;11.214;2024-01-30T08:52:42;2.80;99.90
25248;DHT22;13191;47.472;11.214;2024-01-30T08:55:08;2.90;99.90
25248;DHT22;13191;47.472;11.214;2024-01-30T08:57:33;2.90;99.90
25248;DHT22;13191;47.472;11.214;2024-01-30T08:59:59;3.00;99.90
25248;DHT22;13191;47.472;11.214;2024-01-30T09:02:25;3.10;99.90
25248;DHT22;13191;47.472;11.214;2024-01-30T09:04:51;3.20;99.90
25248;DHT22;13191;47.472;11.214;2024-01-30T09:07:16;3.20;99.90
25248;DHT22;13191;47.472;11.214;2024-01-30T09:09:42;3.30;99.90
25248;DHT22;13191;47.472;11.214;2024-01-30T09:12:08;3.40;99.90
25248;DHT22;13191;47.472;11.214;2024-01-30T09:14:37;3.40;99.90
25248;DHT22;13191;47.472;11.214;2024-01-30T09:17:03;3.50;99.90
25248;DHT22;13191;47.472;11.214;2024-01-30T09:19:29;3.60;99.90
25248;DHT22;13191;47.472;11.214;2024-01-30T09:21:55;3.70;99.90
25248;DHT22;13191;47.472;11.214;2024-01-30T09:24:20;3.70;99.90
25248;DHT22;13191;47.472;11.214;2024-01-30T09:26:46;3.80;99.90
25248;DHT22;13191;47.472;11.214;2024-01-30T09:29:11;3.90;99.90
25248;DHT22;13191;47.472;11.214;2024-01-30T09:31:37;4.00;99.90
25248;DHT22;13191;47.472;11.214;2024-01-30T09:34:03;4.00;99.90
25248;DHT22;13191;47.472;11.214;2024-01-30T09:36:28;4.10;99.90
25248;DHT22;13191;47.472;11.214;2024-01-30T09:38:54;4.20;99.90
25248;DHT22;13191;47.472;11.214;2024-01-30T09:41:20;4.20;99.90
25248;DHT22;13191;47.472;11.214;2024-01-30T09:43:48;4.40;99.90
25248;DHT22;13191;47.472;11.214;2024-01-30T09:46:15;4.60;99.90
25248;DHT22;13191;47.472;11.214;2024-01-30T09:48:42;4.60;99.90
25248;DHT22;13191;47.472;11.214;2024-01-30T09:51:11;4.70;99.90
25248;DHT22;13191;47.472;11.214;2024-01-30T09:53:41;4.80;99.90
25248;DHT22;13191;47.472;11.214;2024-01-30T09:56:08;5.00;99.90
25248;DHT22;13191;47.472;11.214;2024-01-30T09:58:33;5.10;99.90
25248;DHT22;13191;47.472;11.214;2024-01-30T10:00:59;5.30;99.90
25248;DHT22;13191;47.472;11.214;2024-01-30T10:03:25;5.50;99.90
25248;DHT22;13191;47.472;11.214;2024-01-30T10:05:51;5.50;99.90
25248;DHT22;13191;47.472;11.214;2024-01-30T10:08:20;5.70;99.90
25248;DHT22;13191;47.472;11.214;2024-01-30T10:10:46;5.70;99.90
25248;DHT22;13191;47.472;11.214;2024-01-30T10:13:12;5.90;99.90
25248;DHT22;13191;47.472;11.214;2024-01-30T10:15:38;5.90;99.90
25248;DHT22;13191;47.472;11.214;2024-01-30T10:18:04;6.00;99.90
25248;DHT22;13191;47.472;11.214;2024-01-30T10:20:32;6.10;99.90
25248;DHT22;13191;47.472;11.214;2024-01-30T10:22:58;6.20;99.90
25248;DHT22;13191;47.472;11.214;2024-01-30T10:25:23;6.30;99.90
25248;DHT22;13191;47.472;11.214;2024-01-30T10:27:53;6.40;99.90
25248;DHT22;13191;47.472;11.214;2024-01-30T10:30:23;6.50;99.90
25248;DHT22;13191;47.472;11.214;2024-01-30T10:32:49;6.70;99.90
25248;DHT22;13191;47.472;11.214;2024-01-30T10:35:15;6.80;99.90
25248;DHT22;13191;47.472;11.214;2024-01-30T10:37:43;6.90;99.90
25248;DHT22;13191;47.472;11.214;2024-01-30T10:40:09;7.00;99.90
25248;DHT22;13191;47.472;11.214;2024-01-30T10:42:43;7.10;99.90
25248;DHT22;13191;47.472;11.214;2024-01-30T10:45:11;7.20;99.90
25248;DHT22;13191;47.472;11.214;2024-01-30T10:47:40;7.30;99.90
25248;DHT22;13191;47.472;11.214;2024-01-30T10:50:07;7.30;99.90
25248;DHT22;13191;47.472;11.214;2024-01-30T10:52:34;7.30;99.90
25248;DHT22;13191;47.472;11.214;2024-01-30T10:54:59;7.50;99.90
25248;DHT22;13191;47.472;11.214;2024-01-30T10:57:26;7.60;99.90
25248;DHT22;13191;47.472;11.214;2024-01-30T10:59:59;7.60;99.90
25248;DHT22;13191;47.472;11.214;2024-01-30T11:02:25;7.70;99.90
25248;DHT22;13191;47.472;11.214;2024-01-30T11:04:58;7.80;99.90
25248;DHT22;13191;47.472;11.214;2024-01-30T11:07:26;8.00;99.90
25248;DHT22;13191;47.472;11.214;2024-01-30T11:10:03;8.10;99.90
25248;DHT22;13191;47.472;11.214;2024-01-30T11:12:31;8.20;99.90
25248;DHT22;13191;47.472;11.214;2024-01-30T11:15:02;8.30;99.90
25248;DHT22;13191;47.472;11.214;2024-01-30T11:20:15;8.50;99.90
25248;DHT22;13191;47.472;11.214;2024-01-30T11:22:42;8.70;99.90
25248;DHT22;13191;47.472;11.214;2024-01-30T11:25:12;8.70;99.90
25248;DHT22;13191;47.472;11.214;2024-01-30T11:27:38;8.80;99.90
25248;DHT22;13191;47.472;11.214;2024-01-30T11:30:04;8.90;99.90
25248;DHT22;13191;47.472;11.214;2024-01-30T11:32:30;9.00;99.90
25248;DHT22;13191;47.472;11.214;2024-01-30T11:34:56;9.00;99.90
25248;DHT22;13191;47.472;11.214;2024-01-30T11:37:25;9.10;99.90
25248;DHT22;13191;47.472;11.214;2024-01-30T11:39:51;9.20;99.90
25248;DHT22;13191;47.472;11.214;2024-01-30T11:42:19;9.30;99.90
25248;DHT22;13191;47.472;11.214;2024-01-30T11:44:48;9.40;99.90
25248;DHT22;13191;47.472;11.214;2024-01-30T11:47:14;9.40;99.90
25248;DHT22;13191;47.472;11.214;2024-01-30T11:49:41;9.50;99.90
25248;DHT22;13191;47.472;11.214;2024-01-30T11:52:07;9.60;99.90
25248;DHT22;13191;47.472;11.214;2024-01-30T11:54:32;9.70;99.90
25248;DHT22;13191;47.472;11.214;2024-01-30T11:56:58;9.70;99.90
25248;DHT22;13191;47.472;11.214;2024-01-30T11:59:24;9.80;99.90
25248;DHT22;13191;47.472;11.214;2024-01-30T12:01:51;9.90;99.90
25248;DHT22;13191;47.472;11.214;2024-01-30T12:04:17;10.00;99.90
25248;DHT22;13191;47.472;11.214;2024-01-30T12:06:43;10.10;99.90
25248;DHT22;13191;47.472;11.214;2024-01-30T12:09:09;10.20;99.90
25248;DHT22;13191;47.472;11.214;2024-01-30T12:11:45;10.30;99.90
25248;DHT22;13191;47.472;11.214;2024-01-30T12:14:12;10.40;99.90
25248;DHT22;13191;47.472;11.214;2024-01-30T12:16:37;10.50;99.90
25248;DHT22;13191;47.472;11.214;2024-01-30T12:19:03;10.60;99.90
25248;DHT22;13191;47.472;11.214;2024-01-30T12:21:29;10.70;99.90
25248;DHT22;13191;47.472;11.214;2024-01-30T12:23:56;10.80;99.90
25248;DHT22;13191;47.472;11.214;2024-01-30T12:26:22;10.90;99.90
25248;DHT22;13191;47.472;11.214;2024-01-30T12:28:48;11.00;99.90
25248;DHT22;13191;47.472;11.214;2024-01-30T12:31:14;11.20;99.90
25248;DHT22;13191;47.472;11.214;2024-01-30T12:33:40;11.30;99.90
25248;DHT22;13191;47.472;11.214;2024-01-30T12:36:05;11.40;99.90
25248;DHT22;13191;47.472;11.214;2024-01-30T12:38:32;11.50;99.90
25248;DHT22;13191;47.472;11.214;2024-01-30T12:40:57;11.70;99.90
25248;DHT22;13191;47.472;11.214;2024-01-30T12:43:26;11.80;99.90
25248;DHT22;13191;47.472;11.214;2024-01-30T12:45:55;11.90;99.90
25248;DHT22;13191;47.472;11.214;2024-01-30T12:48:21;12.00;99.90
25248;DHT22;13191;47.472;11.214;2024-01-30T12:50:46;12.00;99.90
25248;DHT22;13191;47.472;11.214;2024-01-30T12:53:12;12.00;99.90
25248;DHT22;13191;47.472;11.214;2024-01-30T12:55:38;12.10;99.90
25248;DHT22;13191;47.472;11.214;2024-01-30T12:58:04;12.10;99.90
25248;DHT22;13191;47.472;11.214;2024-01-30T13:00:29;12.20;99.90
25248;DHT22;13191;47.472;11.214;2024-01-30T13:02:55;12.20;99.90
25248;DHT22;13191;47.472;11.214;2024-01-30T13:05:21;12.20;99.90
25248;DHT22;13191;47.472;11.214;2024-01-30T13:07:46;12.20;99.90
25248;DHT22;13191;47.472;11.214;2024-01-30T13:10:12;12.10;99.90
25248;DHT22;13191;47.472;11.214;2024-01-30T13:12:38;12.10;99.90
25248;DHT22;13191;47.472;11.214;2024-01-30T13:15:04;12.10;99.90
25248;DHT22;13191;47.472;11.214;2024-01-30T13:17:31;12.00;99.90
25248;DHT22;13191;47.472;11.214;2024-01-30T13:19:56;11.80;99.90
25248;DHT22;13191;47.472;11.214;2024-01-30T13:22:22;11.70;99.90
25248;DHT22;13191;47.472;11.214;2024-01-30T13:24:48;11.60;99.90
25248;DHT22;13191;47.472;11.214;2024-01-30T13:27:13;11.60;99.90
25248;DHT22;13191;47.472;11.214;2024-01-30T13:29:39;11.50;99.90
25248;DHT22;13191;47.472;11.214;2024-01-30T13:32:05;11.70;99.90
25248;DHT22;13191;47.472;11.214;2024-01-30T13:34:31;11.80;99.90
25248;DHT22;13191;47.472;11.214;2024-01-30T13:36:56;11.80;99.90
25248;DHT22;13191;47.472;11.214;2024-01-30T13:39:22;11.90;99.90
25248;DHT22;13191;47.472;11.214;2024-01-30T13:41:47;11.90;99.90
25248;DHT22;13191;47.472;11.214;2024-01-30T13:44:13;11.90;99.90
25248;DHT22;13191;47.472;11.214;2024-01-30T13:46:39;12.00;99.90
25248;DHT22;13191;47.472;11.214;2024-01-30T13:49:05;12.10;99.90
25248;DHT22;13191;47.472;11.214;2024-01-30T13:51:32;12.10;99.90
25248;DHT22;13191;47.472;11.214;2024-01-30T13:53:58;12.20;99.90
25248;DHT22;13191;47.472;11.214;2024-01-30T13:56:23;12.30;99.90
25248;DHT22;13191;47.472;11.214;2024-01-30T13:58:50;12.30;99.90
25248;DHT22;13191;47.472;11.214;2024-01-30T14:01:16;12.20;99.90
25248;DHT22;13191;47.472;11.214;2024-01-30T14:03:42;12.30;99.90
25248;DHT22;13191;47.472;11.214;2024-01-30T14:06:07;12.40;99.90
25248;DHT22;13191;47.472;11.214;2024-01-30T14:08:33;12.40;99.90
25248;DHT22;13191;47.472;11.214;2024-01-30T14:10:58;12.40;99.90
25248;DHT22;13191;47.472;11.214;2024-01-30T14:13:24;12.40;99.90
25248;DHT22;13191;47.472;11.214;2024-01-30T14:15:51;12.40;99.90
25248;DHT22;13191;47.472;11.214;2024-01-30T14:18:16;12.50;99.90
25248;DHT22;13191;47.472;11.214;2024-01-30T14:20:42;12.30;99.90
25248;DHT22;13191;47.472;11.214;2024-01-30T14:23:08;12.30;99.90
25248;DHT22;13191;47.472;11.214;2024-01-30T14:25:33;12.10;99.90
25248;DHT22;13191;47.472;11.214;2024-01-30T14:27:59;12.10;99.90
25248;DHT22;13191;47.472;11.214;2024-01-30T14:30:24;12.00;99.90
25248;DHT22;13191;47.472;11.214;2024-01-30T14:32:50;11.90;99.90
25248;DHT22;13191;47.472;11.214;2024-01-30T14:35:15;11.80;99.90
25248;DHT22;13191;47.472;11.214;2024-01-30T14:37:41;11.70;99.90
25248;DHT22;13191;47.472;11.214;2024-01-30T14:40:07;11.70;99.90
25248;DHT22;13191;47.472;11.214;2024-01-30T14:42:33;11.70;99.90
25248;DHT22;13191;47.472;11.214;2024-01-30T14:44:58;11.60;99.90
25248;DHT22;13191;47.472;11.214;2024-01-30T14:47:24;11.60;99.90
25248;DHT22;13191;47.472;11.214;2024-01-30T14:49:51;11.50;99.90
25248;DHT22;13191;47.472;11.214;2024-01-30T14:52:17;11.60;99.90
25248;DHT22;13191;47.472;11.214;2024-01-30T14:54:42;11.70;99.90
25248;DHT22;13191;47.472;11.214;2024-01-30T14:57:08;11.60;99.90
25248;DHT22;13191;47.472;11.214;2024-01-30T14:59:34;11.50;99.90
25248;DHT22;13191;47.472;11.214;2024-01-30T15:02:00;11.60;99.90
25248;DHT22;13191;47.472;11.214;2024-01-30T15:04:26;11.80;99.90
25248;DHT22;13191;47.472;11.214;2024-01-30T15:06:52;11.70;99.90
25248;DHT22;13191;47.472;11.214;2024-01-30T15:09:17;11.60;99.90
25248;DHT22;13191;47.472;11.214;2024-01-30T15:11:44;11.70;99.90
25248;DHT22;13191;47.472;11.214;2024-01-30T15:14:10;11.70;99.90
25248;DHT22;13191;47.472;11.214;2024-01-30T15:16:35;11.70;99.90
25248;DHT22;13191;47.472;11.214;2024-01-30T15:19:01;11.80;99.90
25248;DHT22;13191;47.472;11.214;2024-01-30T15:21:27;11.70;99.90
25248;DHT22;13191;47.472;11.214;2024-01-30T15:23:54;11.70;99.90